createdAt,value
2019-06-10T00:01:37.713Z,2.99
2019-06-10T00:06:44.479Z,3.06
2019-06-10T00:11:51.425Z,3.60
2019-06-10T00:16:59.516Z,3.62
2019-06-10T00:22:08.481Z,4.28
2019-06-10T00:27:17.721Z,3.66
2019-06-10T00:32:24.088Z,6.07
2019-06-10T00:37:31.517Z,4.99
2019-06-10T00:42:37.995Z,4.10
2019-06-10T00:47:44.903Z,3.48
2019-06-10T00:52:51.775Z,2.72
2019-06-10T00:58:01.077Z,3.00
2019-06-10T01:03:08.109Z,2.87
2019-06-10T01:08:15.747Z,2.90
2019-06-10T01:13:22.350Z,2.99
2019-06-10T01:18:35.588Z,2.78
2019-06-10T01:23:35.952Z,2.86
2019-06-10T01:28:42.415Z,3.42
2019-06-10T01:33:51.350Z,3.01
2019-06-10T01:38:57.900Z,3.17
2019-06-10T01:44:04.216Z,3.91
2019-06-10T01:49:12.022Z,3.07
2019-06-10T01:54:21.328Z,2.52
2019-06-10T01:59:27.952Z,2.69
2019-06-10T02:04:34.300Z,2.48
2019-06-10T02:09:41.151Z,2.38
2019-06-10T02:14:47.711Z,2.76
2019-06-10T02:19:54.263Z,2.42
2019-06-10T02:25:01.438Z,2.65
2019-06-10T02:30:14.798Z,2.54
2019-06-10T02:35:18.092Z,2.62
2019-06-10T02:40:28.233Z,2.59
2019-06-10T02:45:36.316Z,2.60
2019-06-10T02:50:36.440Z,2.63
2019-06-10T02:55:43.495Z,2.44
2019-06-10T03:00:54.307Z,2.43
2019-06-10T03:05:53.679Z,2.61
2019-06-10T03:11:03.847Z,2.78
2019-06-10T03:16:13.011Z,2.51
2019-06-10T03:21:19.975Z,2.64
2019-06-10T03:26:27.587Z,2.73
2019-06-10T03:31:41.421Z,2.65
2019-06-10T03:36:42.917Z,2.85
2019-06-10T03:41:50.112Z,2.83
2019-06-10T03:46:56.406Z,2.92
2019-06-10T03:52:03.388Z,2.90
2019-06-10T03:57:12.060Z,3.15
2019-06-10T04:02:19.406Z,2.91
2019-06-10T04:07:29.771Z,2.94
2019-06-10T04:12:29.046Z,3.13
2019-06-10T04:17:36.332Z,3.13
2019-06-10T04:22:44.458Z,3.39
2019-06-10T04:27:52.434Z,3.24
2019-06-10T04:33:02.325Z,3.27
2019-06-10T04:38:09.020Z,3.29
2019-06-10T04:43:15.445Z,3.08
2019-06-10T04:48:23.530Z,3.19
2019-06-10T04:53:23.696Z,3.24
2019-06-10T04:58:33.460Z,3.31
2019-06-10T05:03:39.914Z,3.37
2019-06-10T05:08:46.499Z,3.53
2019-06-10T05:13:53.394Z,3.60
2019-06-10T05:18:59.743Z,3.56
2019-06-10T05:24:06.244Z,3.76
2019-06-10T05:29:12.754Z,4.47
2019-06-10T05:34:20.408Z,4.09
2019-06-10T05:39:27.608Z,4.18
2019-06-10T05:44:35.471Z,3.89
2019-06-10T05:49:43.054Z,3.79
2019-06-10T05:54:51.998Z,4.00
2019-06-10T05:59:58.608Z,4.11
2019-06-10T06:05:04.824Z,4.18
2019-06-10T06:10:13.036Z,4.26
2019-06-10T06:15:21.978Z,3.75
2019-06-10T06:20:31.978Z,4.02
2019-06-10T06:25:36.011Z,4.25
2019-06-10T06:30:36.129Z,4.29
2019-06-10T06:35:46.362Z,4.29
2019-06-10T06:40:53.833Z,4.50
2019-06-10T06:46:02.448Z,4.30
2019-06-10T06:51:09.101Z,3.80
2019-06-10T06:56:15.326Z,4.01
2019-06-10T07:01:25.761Z,4.07
2019-06-10T07:06:23.096Z,3.82
2019-06-10T07:11:30.579Z,3.77
2019-06-10T07:16:34.476Z,3.83
2019-06-10T07:21:40.462Z,3.69
2019-06-10T07:26:45.294Z,3.44
2019-06-10T07:31:50.156Z,3.65
2019-06-10T07:36:49.384Z,3.49
2019-06-10T07:41:55.599Z,3.92
2019-06-10T07:47:02.668Z,3.72
2019-06-10T07:52:15.860Z,3.57
2019-06-10T07:57:16.387Z,3.80
2019-06-10T08:02:35.636Z,3.81
2019-06-10T08:07:33.412Z,3.68
2019-06-10T08:12:44.171Z,3.65
2019-06-10T08:17:44.172Z,3.29
2019-06-10T08:22:57.516Z,3.59
2019-06-10T08:27:54.367Z,3.52
2019-06-10T08:33:03.264Z,3.50
2019-06-10T08:38:12.268Z,4.60
2019-06-10T08:43:18.751Z,7.95
2019-06-10T08:48:25.228Z,7.10
2019-06-10T08:53:33.034Z,4.33
2019-06-10T08:58:40.883Z,7.74
2019-06-10T09:03:49.443Z,9.90
2019-06-10T09:08:57.643Z,8.76
2019-06-10T09:14:04.456Z,8.25
2019-06-10T09:19:13.203Z,10.95
2019-06-10T09:24:22.158Z,6.76
2019-06-10T09:29:28.959Z,4.45
2019-06-10T09:34:35.293Z,3.95
2019-06-10T09:39:47.215Z,6.42
2019-06-10T09:44:50.301Z,3.64
2019-06-10T09:49:57.569Z,3.15
2019-06-10T09:55:04.015Z,4.34
2019-06-10T10:00:12.451Z,3.81
2019-06-10T10:05:19.053Z,4.06
2019-06-10T10:10:25.589Z,3.84
2019-06-10T10:15:34.572Z,3.90
2019-06-10T10:20:44.850Z,5.37
2019-06-10T10:25:45.019Z,3.22
2019-06-10T10:30:45.472Z,4.77
2019-06-10T10:35:46.405Z,3.29
2019-06-10T10:40:58.587Z,3.16
2019-06-10T10:46:00.148Z,9.69
2019-06-10T10:51:03.562Z,4.61
2019-06-10T10:56:12.897Z,4.49
2019-06-10T11:01:19.702Z,3.58
2019-06-10T11:06:26.605Z,4.70
2019-06-10T11:11:33.367Z,3.90
2019-06-10T11:16:40.234Z,7.57
2019-06-10T11:21:47.440Z,4.47
2019-06-10T11:26:56.451Z,3.33
2019-06-10T11:32:03.320Z,3.20
2019-06-10T11:37:12.327Z,3.23
2019-06-10T11:42:19.178Z,3.32
2019-06-10T11:47:25.806Z,3.25
2019-06-10T11:52:33.517Z,3.82
2019-06-10T11:57:42.312Z,3.52
2019-06-10T12:02:50.935Z,3.84
2019-06-10T12:07:51.843Z,3.75
2019-06-10T12:12:54.893Z,3.96
2019-06-10T12:18:00.803Z,4.38
2019-06-10T12:23:04.340Z,4.24
2019-06-10T12:28:04.513Z,4.09
2019-06-10T12:33:05.569Z,4.27
2019-06-10T12:38:13.840Z,4.94
2019-06-10T12:43:22.951Z,4.26
2019-06-10T12:48:33.201Z,4.62
2019-06-10T12:53:32.591Z,4.30
2019-06-10T12:58:39.451Z,4.75
2019-06-10T13:03:45.756Z,5.07
2019-06-10T13:08:53.132Z,5.05
2019-06-10T13:14:00.492Z,4.70
2019-06-10T13:19:09.193Z,5.33
2019-06-10T13:24:15.641Z,4.64
2019-06-10T13:29:28.189Z,8.59
2019-06-10T13:34:24.622Z,8.22
2019-06-10T13:39:32.555Z,4.71
2019-06-10T13:44:42.764Z,4.70
2019-06-10T13:49:39.312Z,4.55
2019-06-10T13:54:46.683Z,4.68
2019-06-10T13:59:53.447Z,5.20
2019-06-10T14:05:02.609Z,4.93
2019-06-10T14:10:07.696Z,4.47
2019-06-10T14:15:09.816Z,6.38
2019-06-10T14:20:17.957Z,5.64
2019-06-10T14:25:24.564Z,5.68
2019-06-10T14:30:32.330Z,5.29
2019-06-10T14:35:39.028Z,5.24
2019-06-10T14:40:45.612Z,5.26
2019-06-10T14:45:53.389Z,5.21
2019-06-10T14:51:03.058Z,5.27
2019-06-10T14:56:13.185Z,6.17
2019-06-10T15:01:24.163Z,6.28
2019-06-10T15:06:22.699Z,6.05
2019-06-10T15:11:23.410Z,5.76
2019-06-10T15:16:23.617Z,6.01
2019-06-10T15:21:32.370Z,5.59
2019-06-10T15:26:39.273Z,4.97
2019-06-10T15:31:46.773Z,4.89
2019-06-10T15:36:53.593Z,4.76
2019-06-10T15:42:02.836Z,4.88
2019-06-10T15:47:10.731Z,5.40
2019-06-10T15:52:13.260Z,6.17
2019-06-10T15:57:26.489Z,6.16
2019-06-10T16:02:20.684Z,7.18
2019-06-10T16:07:28.319Z,6.44
2019-06-10T16:12:34.672Z,5.78
2019-06-10T16:17:43.078Z,6.46
2019-06-10T16:22:52.163Z,5.90
2019-06-10T16:27:59.093Z,7.73
2019-06-10T16:33:06.193Z,5.71
2019-06-10T16:38:12.779Z,5.63
2019-06-10T16:43:19.652Z,6.97
2019-06-10T16:48:26.152Z,5.74
2019-06-10T16:53:35.293Z,6.25
2019-06-10T16:58:43.235Z,5.40
2019-06-10T17:03:49.665Z,5.27
2019-06-10T17:08:56.105Z,5.95
2019-06-10T17:14:03.383Z,5.61
2019-06-10T17:19:09.624Z,5.36
2019-06-10T17:24:15.956Z,5.28
2019-06-10T17:29:25.220Z,5.46
2019-06-10T17:34:24.615Z,5.26
2019-06-10T17:39:23.786Z,5.05
2019-06-10T17:44:32.528Z,5.31
2019-06-10T17:49:39.088Z,7.42
2019-06-10T17:54:45.323Z,5.72
2019-06-10T17:59:52.422Z,6.84
2019-06-10T18:04:59.029Z,5.64
2019-06-10T18:10:05.483Z,5.55
2019-06-10T18:15:12.643Z,5.47
2019-06-10T18:20:19.220Z,5.13
2019-06-10T18:25:26.622Z,5.20
2019-06-10T18:30:36.360Z,6.52
2019-06-10T18:35:35.923Z,6.27
2019-06-10T18:40:44.853Z,6.46
2019-06-10T18:45:53.195Z,7.40
2019-06-10T18:51:00.086Z,8.00
2019-06-10T18:56:06.417Z,7.70
2019-06-10T19:01:12.739Z,8.72
2019-06-10T19:06:19.769Z,8.20
2019-06-10T19:11:26.192Z,9.36
2019-06-10T19:16:34.210Z,8.05
2019-06-10T19:21:43.893Z,10.53
2019-06-10T19:26:52.735Z,9.88
2019-06-10T19:31:59.178Z,9.02
2019-06-10T19:37:05.712Z,8.45
2019-06-10T19:42:13.075Z,8.83
2019-06-10T19:47:20.417Z,8.47
2019-06-10T19:52:26.689Z,9.51
2019-06-10T19:57:34.299Z,8.02
2019-06-10T20:02:46.530Z,7.92
2019-06-10T20:07:48.487Z,7.84
2019-06-10T20:12:46.815Z,8.09
2019-06-10T20:17:53.079Z,7.68
2019-06-10T20:23:02.878Z,8.48
2019-06-10T20:27:59.610Z,8.60
2019-06-10T20:33:05.807Z,8.33
2019-06-10T20:38:13.143Z,10.21
2019-06-10T20:43:19.494Z,9.37
2019-06-10T20:48:26.026Z,8.77
2019-06-10T20:53:33.740Z,9.12
2019-06-10T20:58:40.786Z,9.65
2019-06-10T21:03:49.921Z,9.56
2019-06-10T21:08:57.620Z,9.34
2019-06-10T21:14:04.248Z,9.35
2019-06-10T21:19:10.402Z,9.10
2019-06-10T21:24:19.282Z,8.49
2019-06-10T21:29:26.575Z,8.18
2019-06-10T21:34:32.978Z,8.52
2019-06-10T21:39:59.315Z,8.71
2019-06-10T21:45:15.017Z,9.19
2019-06-10T21:49:58.618Z,9.57
2019-06-10T21:54:59.921Z,9.81
2019-06-10T21:59:56.988Z,9.51
2019-06-10T22:05:06.464Z,10.60
2019-06-10T22:10:12.861Z,9.47
2019-06-10T22:15:19.204Z,9.89
2019-06-10T22:20:25.443Z,9.67
2019-06-10T22:25:32.866Z,10.30
2019-06-10T22:30:39.719Z,11.56
2019-06-10T22:35:45.997Z,11.16
2019-06-10T22:40:53.800Z,11.74
2019-06-10T22:46:04.013Z,11.85
2019-06-10T22:51:12.308Z,12.92
2019-06-10T22:56:18.656Z,11.70
2019-06-10T23:01:33.817Z,11.58
2019-06-10T23:06:33.757Z,12.85
2019-06-10T23:11:43.709Z,13.36
2019-06-10T23:16:51.453Z,13.99
2019-06-10T23:22:02.900Z,14.15
2019-06-10T23:27:09.756Z,14.35
2019-06-10T23:32:16.030Z,13.85
2019-06-10T23:37:22.974Z,13.67
2019-06-10T23:42:29.330Z,13.11
2019-06-10T23:47:35.716Z,12.41
2019-06-10T23:52:42.077Z,12.59
2019-06-10T23:57:48.456Z,12.71
